sensor_id;sensor_type;location;lat;lon;timestamp;pressure;altitude;pressure_sealevel;temperature;humidity
30873;BME280;17579;42.690;2.586;2023-02-20T00:00:18;98076.31;;;15.03;37.68
30873;BME280;17579;42.690;2.586;2023-02-20T00:02:44;98074.88;;;15.09;37.02
30873;BME280;17579;42.690;2.586;2023-02-20T00:05:12;98069.84;;;15.05;36.50
30873;BME280;17579;42.690;2.586;2023-02-20T00:07:38;98070.28;;;15.01;36.34
30873;BME280;17579;42.690;2.586;2023-02-20T00:10:03;98065.59;;;14.95;36.16
30873;BME280;17579;42.690;2.586;2023-02-20T00:12:29;98071.53;;;14.88;36.35
30873;BME280;17579;42.690;2.586;2023-02-20T00:14:55;98056.53;;;14.87;35.96
30873;BME280;17579;42.690;2.586;2023-02-20T00:17:20;98071.16;;;14.83;36.27
30873;BME280;17579;42.690;2.586;2023-02-20T00:19:46;98071.16;;;14.83;36.04
30873;BME280;17579;42.690;2.586;2023-02-20T00:22:11;98057.38;;;14.88;35.85
30873;BME280;17579;42.690;2.586;2023-02-20T00:24:37;98057.06;;;14.91;36.16
30873;BME280;17579;42.690;2.586;2023-02-20T00:27:03;98051.28;;;14.96;35.63
30873;BME280;17579;42.690;2.586;2023-02-20T00:29:28;98060.50;;;15.01;35.77
30873;BME280;17579;42.690;2.586;2023-02-20T00:31:56;98057.53;;;15.04;35.80
30873;BME280;17579;42.690;2.586;2023-02-20T00:34:23;98057.53;;;15.04;35.55
30873;BME280;17579;42.690;2.586;2023-02-20T00:36:50;98053.34;;;15.02;35.47
30873;BME280;17579;42.690;2.586;2023-02-20T00:39:15;98054.31;;;15.01;35.27
30873;BME280;17579;42.690;2.586;2023-02-20T00:41:41;98055.31;;;15.00;35.43
30873;BME280;17579;42.690;2.586;2023-02-20T00:44:07;98059.81;;;14.99;35.27
30873;BME280;17579;42.690;2.586;2023-02-20T00:46:32;98050.28;;;14.97;35.75
30873;BME280;17579;42.690;2.586;2023-02-20T00:48:58;98047.09;;;14.93;35.44
30873;BME280;17579;42.690;2.586;2023-02-20T00:51:24;98044.59;;;14.92;35.51
30873;BME280;17579;42.690;2.586;2023-02-20T00:53:50;98038.41;;;14.91;35.49
30873;BME280;17579;42.690;2.586;2023-02-20T00:56:15;98040.25;;;14.90;35.66
30873;BME280;17579;42.690;2.586;2023-02-20T00:58:41;98030.56;;;14.89;35.49
30873;BME280;17579;42.690;2.586;2023-02-20T01:01:06;98031.75;;;14.87;35.57
30873;BME280;17579;42.690;2.586;2023-02-20T01:03:32;98024.03;;;14.84;35.16
30873;BME280;17579;42.690;2.586;2023-02-20T01:05:58;98026.84;;;14.82;34.85
30873;BME280;17579;42.690;2.586;2023-02-20T01:08:23;98028.69;;;14.82;34.71
30873;BME280;17579;42.690;2.586;2023-02-20T01:10:49;98026.84;;;14.82;34.51
30873;BME280;17579;42.690;2.586;2023-02-20T01:13:16;98025.19;;;14.81;34.35
30873;BME280;17579;42.690;2.586;2023-02-20T01:15:41;98022.44;;;14.73;34.45
30873;BME280;17579;42.690;2.586;2023-02-20T01:18:07;98019.03;;;14.63;34.69
30873;BME280;17579;42.690;2.586;2023-02-20T01:20:33;98024.56;;;14.51;34.47
30873;BME280;17579;42.690;2.586;2023-02-20T01:22:58;98023.47;;;14.44;34.77
30873;BME280;17579;42.690;2.586;2023-02-20T01:25:24;98023.09;;;14.39;34.85
30873;BME280;17579;42.690;2.586;2023-02-20T01:27:50;98020.31;;;14.31;34.94
30873;BME280;17579;42.690;2.586;2023-02-20T01:30:15;98012.94;;;14.25;34.61
30873;BME280;17579;42.690;2.586;2023-02-20T01:32:41;98016.06;;;14.20;35.17
30873;BME280;17579;42.690;2.586;2023-02-20T01:35:07;98019.56;;;14.20;35.16
30873;BME280;17579;42.690;2.586;2023-02-20T01:37:33;98014.22;;;14.20;35.17
30873;BME280;17579;42.690;2.586;2023-02-20T01:39:59;98013.56;;;14.18;34.89
30873;BME280;17579;42.690;2.586;2023-02-20T01:42:27;98015.00;;;14.13;34.68
30873;BME280;17579;42.690;2.586;2023-02-20T01:44:54;98013.47;;;14.10;34.82
30873;BME280;17579;42.690;2.586;2023-02-20T01:47:22;98012.63;;;14.10;34.74
30873;BME280;17579;42.690;2.586;2023-02-20T01:49:53;98013.47;;;14.10;35.18
30873;BME280;17579;42.690;2.586;2023-02-20T01:52:25;98010.66;;;14.12;35.03
30873;BME280;17579;42.690;2.586;2023-02-20T01:54:56;98005.31;;;14.12;35.04
30873;BME280;17579;42.690;2.586;2023-02-20T01:57:25;97999.19;;;14.11;34.52
30873;BME280;17579;42.690;2.586;2023-02-20T02:00:01;97995.97;;;14.08;35.09
30873;BME280;17579;42.690;2.586;2023-02-20T02:02:32;98003.78;;;14.09;34.75
30873;BME280;17579;42.690;2.586;2023-02-20T02:05:01;97999.31;;;14.10;34.38
30873;BME280;17579;42.690;2.586;2023-02-20T02:07:28;98005.63;;;14.09;34.86
30873;BME280;17579;42.690;2.586;2023-02-20T02:09:58;98004.66;;;14.10;34.52
30873;BME280;17579;42.690;2.586;2023-02-20T02:12:27;97998.63;;;14.08;34.29
30873;BME280;17579;42.690;2.586;2023-02-20T02:14:52;97991.91;;;14.03;34.25
30873;BME280;17579;42.690;2.586;2023-02-20T02:28:36;97985.50;;;13.78;34.64
30873;BME280;17579;42.690;2.586;2023-02-20T02:31:23;97986.97;;;13.63;34.88
30873;BME280;17579;42.690;2.586;2023-02-20T02:39:37;97987.38;;;13.68;34.84
30873;BME280;17579;42.690;2.586;2023-02-20T02:42:13;97997.84;;;13.69;34.91
30873;BME280;17579;42.690;2.586;2023-02-20T02:45:17;97984.44;;;13.61;35.14
30873;BME280;17579;42.690;2.586;2023-02-20T02:50:36;97989.09;;;13.59;34.47
30873;BME280;17579;42.690;2.586;2023-02-20T02:53:03;97988.81;;;13.52;34.22
30873;BME280;17579;42.690;2.586;2023-02-20T02:55:31;97989.94;;;13.50;34.29
30873;BME280;17579;42.690;2.586;2023-02-20T02:57:59;97989.78;;;13.51;34.00
30873;BME280;17579;42.690;2.586;2023-02-20T03:03:06;97980.16;;;13.50;34.09
30873;BME280;17579;42.690;2.586;2023-02-20T03:05:38;97979.44;;;13.58;33.89
30873;BME280;17579;42.690;2.586;2023-02-20T03:08:17;97978.03;;;13.54;34.03
30873;BME280;17579;42.690;2.586;2023-02-20T03:10:47;97982.09;;;13.58;33.64
30873;BME280;17579;42.690;2.586;2023-02-20T03:13:14;97975.69;;;13.51;33.70
30873;BME280;17579;42.690;2.586;2023-02-20T03:15:45;97966.63;;;13.44;33.91
30873;BME280;17579;42.690;2.586;2023-02-20T03:18:24;97969.88;;;13.38;34.07
30873;BME280;17579;42.690;2.586;2023-02-20T03:20:57;97965.78;;;13.43;34.01
30873;BME280;17579;42.690;2.586;2023-02-20T03:23:26;97964.78;;;13.44;33.46
30873;BME280;17579;42.690;2.586;2023-02-20T03:26:01;97949.41;;;13.48;33.90
30873;BME280;17579;42.690;2.586;2023-02-20T03:28:31;97941.97;;;13.51;33.48
30873;BME280;17579;42.690;2.586;2023-02-20T03:31:15;97940.84;;;13.54;33.49
30873;BME280;17579;42.690;2.586;2023-02-20T03:33:54;97942.47;;;13.65;33.55
30873;BME280;17579;42.690;2.586;2023-02-20T03:36:26;97941.31;;;13.67;33.59
30873;BME280;17579;42.690;2.586;2023-02-20T03:39:03;97941.03;;;13.71;33.29
30873;BME280;17579;42.690;2.586;2023-02-20T03:41:31;97946.59;;;13.77;32.78
30873;BME280;17579;42.690;2.586;2023-02-20T03:44:03;97935.97;;;13.77;32.66
30873;BME280;17579;42.690;2.586;2023-02-20T03:46:31;97934.97;;;13.78;32.19
30873;BME280;17579;42.690;2.586;2023-02-20T03:49:04;97933.44;;;13.76;32.68
30873;BME280;17579;42.690;2.586;2023-02-20T03:51:32;97939.47;;;13.78;32.34
30873;BME280;17579;42.690;2.586;2023-02-20T03:53:58;97946.44;;;13.79;32.24
30873;BME280;17579;42.690;2.586;2023-02-20T03:56:28;97950.09;;;13.78;32.40
30873;BME280;17579;42.690;2.586;2023-02-20T03:59:01;97933.44;;;13.76;32.42
30873;BME280;17579;42.690;2.586;2023-02-20T04:01:30;97935.81;;;13.79;31.91
30873;BME280;17579;42.690;2.586;2023-02-20T04:03:58;97934.81;;;13.80;32.27
30873;BME280;17579;42.690;2.586;2023-02-20T04:06:28;97940.28;;;13.78;32.10
30873;BME280;17579;42.690;2.586;2023-02-20T04:09:01;97935.28;;;13.75;32.40
30873;BME280;17579;42.690;2.586;2023-02-20T04:11:32;97937.78;;;13.77;32.57
30873;BME280;17579;42.690;2.586;2023-02-20T04:14:00;97949.09;;;13.79;31.95
30873;BME280;17579;42.690;2.586;2023-02-20T04:16:27;97950.22;;;13.76;31.69
30873;BME280;17579;42.690;2.586;2023-02-20T04:18:53;97951.38;;;13.74;31.54
30873;BME280;17579;42.690;2.586;2023-02-20T04:21:28;97952.66;;;13.69;32.49
30873;BME280;17579;42.690;2.586;2023-02-20T04:24:09;97953.63;;;13.68;32.27
30873;BME280;17579;42.690;2.586;2023-02-20T04:26:35;97956.25;;;13.78;31.73
30873;BME280;17579;42.690;2.586;2023-02-20T04:29:02;97955.78;;;13.83;31.27
30873;BME280;17579;42.690;2.586;2023-02-20T04:31:28;97949.88;;;13.89;31.33
30873;BME280;17579;42.690;2.586;2023-02-20T04:33:53;97954.63;;;13.95;31.56
30873;BME280;17579;42.690;2.586;2023-02-20T04:36:19;97950.38;;;14.02;31.18
30873;BME280;17579;42.690;2.586;2023-02-20T04:38:45;97952.56;;;14.07;31.09
30873;BME280;17579;42.690;2.586;2023-02-20T04:41:11;97954.94;;;14.10;31.13
30873;BME280;17579;42.690;2.586;2023-02-20T04:43:36;97945.28;;;14.09;31.20
30873;BME280;17579;42.690;2.586;2023-02-20T04:46:02;97950.91;;;14.06;31.40
30873;BME280;17579;42.690;2.586;2023-02-20T04:48:27;97954.00;;;14.01;31.35
30873;BME280;17579;42.690;2.586;2023-02-20T04:50:53;97951.09;;;13.95;31.38
30873;BME280;17579;42.690;2.586;2023-02-20T04:53:19;97963.63;;;13.84;31.43
30873;BME280;17579;42.690;2.586;2023-02-20T04:55:44;97969.53;;;13.78;31.67
30873;BME280;17579;42.690;2.586;2023-02-20T04:58:10;97971.72;;;13.65;31.29
30873;BME280;17579;42.690;2.586;2023-02-20T05:00:35;97970.84;;;13.64;32.36
30873;BME280;17579;42.690;2.586;2023-02-20T05:03:01;97972.69;;;13.64;31.87
30873;BME280;17579;42.690;2.586;2023-02-20T05:05:28;97972.69;;;13.64;31.14
30873;BME280;17579;42.690;2.586;2023-02-20T05:07:55;97973.66;;;13.63;31.53
30873;BME280;17579;42.690;2.586;2023-02-20T05:10:22;97979.53;;;13.66;31.74
30873;BME280;17579;42.690;2.586;2023-02-20T05:12:48;97970.16;;;13.72;31.93
30873;BME280;17579;42.690;2.586;2023-02-20T05:15:14;97982.13;;;13.76;31.83
30873;BME280;17579;42.690;2.586;2023-02-20T05:17:40;97977.22;;;13.81;31.50
30873;BME280;17579;42.690;2.586;2023-02-20T05:20:07;97979.84;;;13.91;31.22
30873;BME280;17579;42.690;2.586;2023-02-20T05:22:33;97981.22;;;13.95;31.15
30873;BME280;17579;42.690;2.586;2023-02-20T05:24:58;97984.41;;;13.99;31.73
30873;BME280;17579;42.690;2.586;2023-02-20T05:27:25;97986.09;;;14.00;31.29
30873;BME280;17579;42.690;2.586;2023-02-20T05:29:53;97996.03;;;13.98;32.02
30873;BME280;17579;42.690;2.586;2023-02-20T05:32:20;97995.63;;;13.93;31.47
30873;BME280;17579;42.690;2.586;2023-02-20T05:34:46;97994.41;;;13.87;31.53
30873;BME280;17579;42.690;2.586;2023-02-20T05:37:14;98002.28;;;13.79;31.71
30873;BME280;17579;42.690;2.586;2023-02-20T05:39:40;98001.91;;;13.74;31.49
30873;BME280;17579;42.690;2.586;2023-02-20T05:42:07;97996.03;;;13.70;31.82
30873;BME280;17579;42.690;2.586;2023-02-20T05:44:33;98007.94;;;13.66;31.74
30873;BME280;17579;42.690;2.586;2023-02-20T05:46:58;98005.72;;;13.61;31.58
30873;BME280;17579;42.690;2.586;2023-02-20T05:49:24;98005.13;;;13.67;33.06
30873;BME280;17579;42.690;2.586;2023-02-20T05:51:50;98002.19;;;13.71;31.65
30873;BME280;17579;42.690;2.586;2023-02-20T05:54:18;98000.66;;;13.68;31.20
30873;BME280;17579;42.690;2.586;2023-02-20T05:56:45;98000.97;;;13.65;31.60
30873;BME280;17579;42.690;2.586;2023-02-20T05:59:12;98005.28;;;13.66;31.12
30873;BME280;17579;42.690;2.586;2023-02-20T06:01:38;98007.22;;;13.74;31.04
30873;BME280;17579;42.690;2.586;2023-02-20T06:04:04;98008.16;;;13.82;30.32
30873;BME280;17579;42.690;2.586;2023-02-20T06:06:32;98009.22;;;13.90;30.18
30873;BME280;17579;42.690;2.586;2023-02-20T06:08:58;98015.09;;;13.93;30.15
30873;BME280;17579;42.690;2.586;2023-02-20T06:11:24;98024.91;;;13.93;29.91
30873;BME280;17579;42.690;2.586;2023-02-20T06:13:49;98020.41;;;13.93;30.13
30873;BME280;17579;42.690;2.586;2023-02-20T06:16:22;98016.13;;;13.82;30.51
30873;BME280;17579;42.690;2.586;2023-02-20T06:18:48;98016.56;;;13.78;30.33
30873;BME280;17579;42.690;2.586;2023-02-20T06:21:13;98016.31;;;13.71;30.07
30873;BME280;17579;42.690;2.586;2023-02-20T06:23:41;98016.75;;;13.66;30.14
30873;BME280;17579;42.690;2.586;2023-02-20T06:26:07;98024.31;;;13.61;30.53
30873;BME280;17579;42.690;2.586;2023-02-20T06:28:33;98033.72;;;13.56;30.38
30873;BME280;17579;42.690;2.586;2023-02-20T06:30:58;98034.56;;;13.56;30.34
30873;BME280;17579;42.690;2.586;2023-02-20T06:33:24;98032.88;;;13.55;30.67
30873;BME280;17579;42.690;2.586;2023-02-20T06:35:50;98034.28;;;13.49;31.06
30873;BME280;17579;42.690;2.586;2023-02-20T06:38:16;98040.47;;;13.40;30.82
30873;BME280;17579;42.690;2.586;2023-02-20T06:40:41;98040.47;;;13.30;31.11
30873;BME280;17579;42.690;2.586;2023-02-20T06:43:08;98046.91;;;13.18;31.98
30873;BME280;17579;42.690;2.586;2023-02-20T06:45:33;98051.13;;;13.11;32.49
30873;BME280;17579;42.690;2.586;2023-02-20T06:47:59;98057.97;;;13.04;32.93
30873;BME280;17579;42.690;2.586;2023-02-20T06:50:24;98058.81;;;12.94;33.40
30873;BME280;17579;42.690;2.586;2023-02-20T06:52:51;98061.19;;;12.88;33.25
30873;BME280;17579;42.690;2.586;2023-02-20T06:55:16;98069.16;;;12.78;33.36
30873;BME280;17579;42.690;2.586;2023-02-20T06:57:42;98069.13;;;12.68;33.84
30873;BME280;17579;42.690;2.586;2023-02-20T07:00:08;98078.50;;;12.62;33.90
30873;BME280;17579;42.690;2.586;2023-02-20T07:02:33;98082.38;;;12.58;34.21
30873;BME280;17579;42.690;2.586;2023-02-20T07:05:02;98090.50;;;12.57;33.68
30873;BME280;17579;42.690;2.586;2023-02-20T07:07:28;98098.19;;;12.60;33.82
30873;BME280;17579;42.690;2.586;2023-02-20T07:09:54;98095.97;;;12.65;33.81
30873;BME280;17579;42.690;2.586;2023-02-20T07:12:19;98102.53;;;12.71;33.96
30873;BME280;17579;42.690;2.586;2023-02-20T07:14:45;98106.72;;;12.73;34.27
30873;BME280;17579;42.690;2.586;2023-02-20T07:17:10;98109.78;;;12.78;34.29
30873;BME280;17579;42.690;2.586;2023-02-20T07:19:36;98111.19;;;12.82;34.07
30873;BME280;17579;42.690;2.586;2023-02-20T07:22:01;98117.38;;;12.83;33.96
30873;BME280;17579;42.690;2.586;2023-02-20T07:24:27;98124.47;;;12.82;34.31
30873;BME280;17579;42.690;2.586;2023-02-20T07:26:53;98130.50;;;12.85;34.36
30873;BME280;17579;42.690;2.586;2023-02-20T07:29:18;98133.16;;;12.85;34.21
30873;BME280;17579;42.690;2.586;2023-02-20T07:31:44;98137.34;;;12.87;34.35
30873;BME280;17579;42.690;2.586;2023-02-20T07:34:10;98148.53;;;12.91;35.63
30873;BME280;17579;42.690;2.586;2023-02-20T07:36:35;98146.16;;;12.88;36.60
30873;BME280;17579;42.690;2.586;2023-02-20T07:39:02;98153.53;;;12.84;36.96
30873;BME280;17579;42.690;2.586;2023-02-20T07:41:30;98152.44;;;12.87;38.66
30873;BME280;17579;42.690;2.586;2023-02-20T07:43:57;98158.72;;;12.86;40.69
30873;BME280;17579;42.690;2.586;2023-02-20T07:46:22;98156.78;;;12.88;42.34
30873;BME280;17579;42.690;2.586;2023-02-20T07:48:48;98167.13;;;12.91;43.56
30873;BME280;17579;42.690;2.586;2023-02-20T07:51:14;98171.47;;;12.92;44.27
30873;BME280;17579;42.690;2.586;2023-02-20T07:53:44;98166.53;;;12.87;46.00
30873;BME280;17579;42.690;2.586;2023-02-20T07:56:11;98168.63;;;12.83;47.06
30873;BME280;17579;42.690;2.586;2023-02-20T07:58:36;98174.78;;;12.84;47.67
30873;BME280;17579;42.690;2.586;2023-02-20T08:01:02;98175.38;;;12.88;49.36
30873;BME280;17579;42.690;2.586;2023-02-20T08:03:28;98174.94;;;12.92;49.67
30873;BME280;17579;42.690;2.586;2023-02-20T08:05:53;98175.25;;;12.99;50.61
30873;BME280;17579;42.690;2.586;2023-02-20T08:08:19;98177.63;;;13.02;50.93
30873;BME280;17579;42.690;2.586;2023-02-20T08:10:49;98172.44;;;13.00;51.22
30873;BME280;17579;42.690;2.586;2023-02-20T08:13:15;98177.91;;;12.99;51.56
30873;BME280;17579;42.690;2.586;2023-02-20T08:15:41;98178.31;;;13.04;52.31
30873;BME280;17579;42.690;2.586;2023-02-20T08:18:10;98177.47;;;13.04;53.07
30873;BME280;17579;42.690;2.586;2023-02-20T08:20:35;98180.97;;;13.04;52.75
30873;BME280;17579;42.690;2.586;2023-02-20T08:23:01;98172.47;;;13.10;53.01
30873;BME280;17579;42.690;2.586;2023-02-20T08:25:26;98169.38;;;13.15;52.82
30873;BME280;17579;42.690;2.586;2023-02-20T08:27:53;98171.19;;;13.14;53.96
30873;BME280;17579;42.690;2.586;2023-02-20T08:30:22;98175.81;;;13.12;53.24
30873;BME280;17579;42.690;2.586;2023-02-20T08:32:50;98160.69;;;13.13;53.84
30873;BME280;17579;42.690;2.586;2023-02-20T08:35:16;98160.31;;;13.17;53.86
30873;BME280;17579;42.690;2.586;2023-02-20T08:37:41;98157.22;;;13.22;54.01
30873;BME280;17579;42.690;2.586;2023-02-20T08:40:08;98165.78;;;13.36;53.88
30873;BME280;17579;42.690;2.586;2023-02-20T08:42:34;98154.44;;;13.33;53.57
30873;BME280;17579;42.690;2.586;2023-02-20T08:45:01;98156.84;;;13.46;53.58
30873;BME280;17579;42.690;2.586;2023-02-20T08:47:27;98156.25;;;13.62;53.81
30873;BME280;17579;42.690;2.586;2023-02-20T08:49:53;98165.78;;;13.65;53.29
30873;BME280;17579;42.690;2.586;2023-02-20T08:52:18;98157.78;;;13.65;54.05
30873;BME280;17579;42.690;2.586;2023-02-20T08:54:45;98159.88;;;13.61;53.82
30873;BME280;17579;42.690;2.586;2023-02-20T08:57:12;98153.19;;;13.47;53.99
30873;BME280;17579;42.690;2.586;2023-02-20T08:59:37;98155.97;;;13.46;54.15
30873;BME280;17579;42.690;2.586;2023-02-20T09:02:04;98154.44;;;13.53;53.67
30873;BME280;17579;42.690;2.586;2023-02-20T09:04:29;98153.31;;;13.56;53.84
30873;BME280;17579;42.690;2.586;2023-02-20T09:06:55;98144.22;;;13.48;53.73
30873;BME280;17579;42.690;2.586;2023-02-20T09:09:21;98145.19;;;13.47;53.73
30873;BME280;17579;42.690;2.586;2023-02-20T09:11:46;98138.38;;;13.45;54.62
30873;BME280;17579;42.690;2.586;2023-02-20T09:14:12;98139.78;;;13.49;55.08
30873;BME280;17579;42.690;2.586;2023-02-20T09:16:37;98146.59;;;13.51;55.13
30873;BME280;17579;42.690;2.586;2023-02-20T09:19:07;98146.88;;;13.58;55.53
30873;BME280;17579;42.690;2.586;2023-02-20T09:21:33;98145.03;;;13.68;55.57
30873;BME280;17579;42.690;2.586;2023-02-20T09:23:59;98139.72;;;13.68;54.79
30873;BME280;17579;42.690;2.586;2023-02-20T09:26:25;98134.97;;;13.72;54.75
30873;BME280;17579;42.690;2.586;2023-02-20T09:28:50;98142.09;;;13.72;55.09
30873;BME280;17579;42.690;2.586;2023-02-20T09:31:16;98141.81;;;13.75;54.67
30873;BME280;17579;42.690;2.586;2023-02-20T09:33:43;98136.91;;;13.80;54.26
30873;BME280;17579;42.690;2.586;2023-02-20T09:36:09;98142.06;;;13.91;54.64
30873;BME280;17579;42.690;2.586;2023-02-20T09:38:34;98146.09;;;14.05;55.40
30873;BME280;17579;42.690;2.586;2023-02-20T09:41:00;98135.22;;;14.16;54.95
30873;BME280;17579;42.690;2.586;2023-02-20T09:46:20;98132.81;;;14.33;54.13
30873;BME280;17579;42.690;2.586;2023-02-20T09:51:25;98128.97;;;14.45;54.33
30873;BME280;17579;42.690;2.586;2023-02-20T09:54:15;98128.81;;;14.47;53.37
30873;BME280;17579;42.690;2.586;2023-02-20T09:56:48;98126.63;;;14.60;53.55
30873;BME280;17579;42.690;2.586;2023-02-20T09:59:19;98122.72;;;14.64;53.73
30873;BME280;17579;42.690;2.586;2023-02-20T10:04:17;98128.22;;;14.81;53.41
30873;BME280;17579;42.690;2.586;2023-02-20T10:06:50;98121.84;;;14.92;52.57
30873;BME280;17579;42.690;2.586;2023-02-20T10:09:17;98122.75;;;15.00;53.03
30873;BME280;17579;42.690;2.586;2023-02-20T10:11:55;98124.19;;;15.13;52.50
30873;BME280;17579;42.690;2.586;2023-02-20T10:14:33;98114.59;;;15.20;52.29
30873;BME280;17579;42.690;2.586;2023-02-20T10:22:29;98109.69;;;15.51;52.00
30873;BME280;17579;42.690;2.586;2023-02-20T10:30:19;98107.41;;;15.83;50.98
30873;BME280;17579;42.690;2.586;2023-02-20T10:32:53;98099.94;;;15.86;50.68
30873;BME280;17579;42.690;2.586;2023-02-20T10:35:25;98103.34;;;15.97;50.37
30873;BME280;17579;42.690;2.586;2023-02-20T10:37:57;98102.69;;;16.03;50.69
30873;BME280;17579;42.690;2.586;2023-02-20T10:40:32;98097.56;;;16.09;50.01
30873;BME280;17579;42.690;2.586;2023-02-20T10:45:37;98089.78;;;16.24;49.79
30873;BME280;17579;42.690;2.586;2023-02-20T10:48:08;98086.50;;;16.31;49.81
30873;BME280;17579;42.690;2.586;2023-02-20T10:50:39;98090.50;;;16.35;50.40
30873;BME280;17579;42.690;2.586;2023-02-20T10:53:18;98096.03;;;16.41;49.95
30873;BME280;17579;42.690;2.586;2023-02-20T10:55:53;98093.53;;;16.40;50.13
30873;BME280;17579;42.690;2.586;2023-02-20T10:58:26;98090.19;;;16.46;49.51
30873;BME280;17579;42.690;2.586;2023-02-20T11:00:58;98088.72;;;16.52;50.17
30873;BME280;17579;42.690;2.586;2023-02-20T11:03:47;98079.06;;;16.51;50.11
30873;BME280;17579;42.690;2.586;2023-02-20T11:06:20;98083.56;;;16.58;49.48
30873;BME280;17579;42.690;2.586;2023-02-20T11:08:46;98095.59;;;16.62;49.41
30873;BME280;17579;42.690;2.586;2023-02-20T11:11:32;98076.91;;;16.62;49.92
30873;BME280;17579;42.690;2.586;2023-02-20T11:14:01;98079.09;;;16.75;50.34
30873;BME280;17579;42.690;2.586;2023-02-20T11:16:31;98079.59;;;16.71;50.32
30873;BME280;17579;42.690;2.586;2023-02-20T11:19:07;98075.41;;;16.76;50.58
30873;BME280;17579;42.690;2.586;2023-02-20T11:21:36;98070.09;;;16.85;50.27
30873;BME280;17579;42.690;2.586;2023-02-20T11:26:31;98076.13;;;16.95;50.43
30873;BME280;17579;42.690;2.586;2023-02-20T11:31:44;98071.31;;;16.99;50.38
30873;BME280;17579;42.690;2.586;2023-02-20T11:34:29;98065.47;;;17.03;50.02
30873;BME280;17579;42.690;2.586;2023-02-20T11:37:04;98062.28;;;17.16;49.88
30873;BME280;17579;42.690;2.586;2023-02-20T11:39:30;98062.31;;;17.24;49.77
30873;BME280;17579;42.690;2.586;2023-02-20T11:44:24;98047.44;;;17.22;49.52
30873;BME280;17579;42.690;2.586;2023-02-20T11:49:22;98047.59;;;17.28;49.67
30873;BME280;17579;42.690;2.586;2023-02-20T11:51:48;98050.09;;;17.30;49.50
30873;BME280;17579;42.690;2.586;2023-02-20T11:54:21;98039.75;;;17.27;49.47
30873;BME280;17579;42.690;2.586;2023-02-20T12:01:41;98029.03;;;17.43;48.89
30873;BME280;17579;42.690;2.586;2023-02-20T12:04:18;98032.53;;;17.44;49.06
30873;BME280;17579;42.690;2.586;2023-02-20T12:06:44;98028.19;;;17.43;49.06
30873;BME280;17579;42.690;2.586;2023-02-20T12:09:11;98021.16;;;17.34;48.18
30873;BME280;17579;42.690;2.586;2023-02-20T12:11:39;98017.66;;;17.41;46.92
30873;BME280;17579;42.690;2.586;2023-02-20T12:14:08;98023.66;;;17.43;47.20
30873;BME280;17579;42.690;2.586;2023-02-20T12:16:40;98015.16;;;17.40;47.54
30873;BME280;17579;42.690;2.586;2023-02-20T12:19:35;98013.16;;;17.42;48.08
30873;BME280;17579;42.690;2.586;2023-02-20T12:22:19;98013.78;;;17.44;48.83
30873;BME280;17579;42.690;2.586;2023-02-20T12:25:03;98000.59;;;17.51;49.26
30873;BME280;17579;42.690;2.586;2023-02-20T12:27:43;97994.06;;;17.53;48.95
30873;BME280;17579;42.690;2.586;2023-02-20T12:30:31;97998.41;;;17.54;49.15
30873;BME280;17579;42.690;2.586;2023-02-20T12:43:42;97982.41;;;17.38;49.54
30873;BME280;17579;42.690;2.586;2023-02-20T12:46:16;97981.41;;;17.39;50.00
30873;BME280;17579;42.690;2.586;2023-02-20T12:54:18;97974.19;;;17.47;49.22
30873;BME280;17579;42.690;2.586;2023-02-20T13:02:28;97963.50;;;17.39;48.61
30873;BME280;17579;42.690;2.586;2023-02-20T13:04:59;97960.00;;;17.39;48.43
30873;BME280;17579;42.690;2.586;2023-02-20T13:07:31;97966.88;;;17.33;48.54
30873;BME280;17579;42.690;2.586;2023-02-20T13:10:15;97954.34;;;17.25;48.53
30873;BME280;17579;42.690;2.586;2023-02-20T13:12:42;97957.19;;;17.24;48.48
30873;BME280;17579;42.690;2.586;2023-02-20T13:18:23;97953.84;;;17.30;47.92
30873;BME280;17579;42.690;2.586;2023-02-20T13:20:52;97944.81;;;17.31;47.63
30873;BME280;17579;42.690;2.586;2023-02-20T13:23:28;97948.69;;;17.28;47.82
30873;BME280;17579;42.690;2.586;2023-02-20T13:25:55;97945.50;;;17.25;47.17
30873;BME280;17579;42.690;2.586;2023-02-20T13:28:34;97943.66;;;17.25;47.20
30873;BME280;17579;42.690;2.586;2023-02-20T13:31:11;97935.97;;;17.30;47.37
30873;BME280;17579;42.690;2.586;2023-02-20T13:33:38;97927.47;;;17.27;46.39
30873;BME280;17579;42.690;2.586;2023-02-20T13:36:05;97932.13;;;17.25;46.54
30873;BME280;17579;42.690;2.586;2023-02-20T13:38:31;97928.81;;;17.23;46.19
30873;BME280;17579;42.690;2.586;2023-02-20T13:41:06;97933.81;;;17.18;46.53
30873;BME280;17579;42.690;2.586;2023-02-20T13:43:35;97920.47;;;17.09;45.71
30873;BME280;17579;42.690;2.586;2023-02-20T13:46:11;97925.00;;;17.01;46.59
30873;BME280;17579;42.690;2.586;2023-02-20T13:48:42;97916.47;;;17.05;46.44
30873;BME280;17579;42.690;2.586;2023-02-20T13:53:36;97915.63;;;17.21;46.03
30873;BME280;17579;42.690;2.586;2023-02-20T13:56:01;97915.09;;;17.18;46.03
30873;BME280;17579;42.690;2.586;2023-02-20T13:58:27;97905.94;;;17.12;45.96
30873;BME280;17579;42.690;2.586;2023-02-20T14:00:53;97907.94;;;17.10;45.44
30873;BME280;17579;42.690;2.586;2023-02-20T14:03:24;97909.13;;;17.07;45.89
30873;BME280;17579;42.690;2.586;2023-02-20T14:08:17;97908.44;;;17.13;45.48
30873;BME280;17579;42.690;2.586;2023-02-20T14:10:43;97906.78;;;17.04;45.80
30873;BME280;17579;42.690;2.586;2023-02-20T14:13:14;97912.31;;;17.03;46.14
30873;BME280;17579;42.690;2.586;2023-02-20T14:15:55;97903.72;;;17.24;45.63
30873;BME280;17579;42.690;2.586;2023-02-20T14:20:48;97902.00;;;17.39;45.52
30873;BME280;17579;42.690;2.586;2023-02-20T14:23:18;97905.09;;;17.59;44.99
30873;BME280;17579;42.690;2.586;2023-02-20T14:25:58;97904.94;;;17.61;44.78
30873;BME280;17579;42.690;2.586;2023-02-20T14:28:28;97899.97;;;17.81;44.74
30873;BME280;17579;42.690;2.586;2023-02-20T14:33:40;97898.41;;;18.03;43.77
30873;BME280;17579;42.690;2.586;2023-02-20T14:36:17;97897.72;;;18.01;43.70
30873;BME280;17579;42.690;2.586;2023-02-20T14:41:20;97899.69;;;18.07;43.41
30873;BME280;17579;42.690;2.586;2023-02-20T14:46:20;97902.59;;;18.29;43.65